Ride Results

Burraga Copper Challenge (07-12-2014)
Ride distance: 80.0 km

Outcomes - Burraga Copper Challenge (07-12-2014)
Division No. of Entries Retired / DNE Completed Withdrawn Ineligible V/O Percentage Completed
HW 12 - 7 4 - 1 58.33%
MW 20 - 16 2 1 1 80.00%
LW 12 - 9 3 - - 75.00%
JN 5 - 3 1 - 1 60.00%
Totals 49 - 35 10 1 3 71.43%
Results - Burraga Copper Challenge (07-12-2014)
No. Rider Horse Place Time Leg Speeds Total
Km/Hr
H/R bpm
Heavyweight
28 Robert Catlin Copperkahn Tiara 1 (BC) 5:45:00 14.1, 13.7 13.91 28, 37, 40 (Avg:38)
52 Gavin Peacock Chop Chop 2 6:26:00 14.6, 10.8 12.44 44, 40, 52 (Avg:46)
32 Anthony Parker Webbs Creek Cattle Baron 3 7:45:00 11.5, 9.3 10.32 38, 45, 58 (Avg:51)
4 Sue Warren Lilonda Sharjah 4 7:55:00 10.8, 9.4 10.11 34, 52, 58 (Avg:55)
23 Stuart Lymbery Garonne Park Walker 5 8:08:00 10.7, 9.0 9.84 30, 42, 48 (Avg:45)
59 Corey Tuhaka Eaglehawk Ashquar 6 8:26:00 9.6, 9.3 9.49 34, 38, 46 (Avg:42)
44 Jessica Dastani Corryong Dorsaz 7 9:22:00 8.8, 8.2 8.54 38, 45, 46 (Avg:45)
33 Scott Peters Stoodleigh Colonial Boy Lame L2 0:00:00 12.4, 10.0 - 29, 38, 44 (Avg:41)
31 Ian Dreghorn Ausden Nile Prins Withdrawn L1 0:00:00 - - 39, 37 (Avg:37)
47 Marty Gregson Burren-Dah Lady Isabeau Withdrawn L1 0:00:00 - - 40, 42 (Avg:42)
7 Jack Johnson Wanstead Silver Flyer Withdrawn L1 0:00:00 - - 28, 47 (Avg:47)
58 Sarah Pollard-Williams Jive Withdrawn L1 0:00:00 - - 35, 45 (Avg:45)
Middleweight
2 Jenny Shepheard Annaliisa'ar 1 (BC) 5:10:00 16.3, 14.7 15.48 30, 36, 48 (Avg:42)
20 Clare Feary Die Kinder Junrei 2 5:45:00 14.1, 13.7 13.91 31, 40, 47 (Avg:43)
49 Talea Hasko-Stewart Blake's Heaven Bombora 3 5:52:00 14.3, 12.9 13.64 34, 40, 45 (Avg:42)
54 Claudia Reid Ningadoo Tornado 4 6:36:00 12.3, 11.9 12.12 35, 40, 40 (Avg:40)
6 Emily Streckfuss Webbs Creek Starlight 4 6:36:00 12.3, 11.9 12.12 34, 40, 41 (Avg:40)
43 Ian Curtis CJ 6 6:41:00 12.5, 11.4 11.97 38, 42, 45 (Avg:43)
21 John Symons Forest Dale Xasperation 7 7:02:00 13.0, 10.0 11.37 34, 38, 56 (Avg:47)
25 Darryl King James Bonn 8 7:08:00 12.9, 9.8 11.21 38, 45, 54 (Avg:49)
9 Jennifer Gilbertson Coolahlee Park Samba 9 7:45:00 11.5, 9.3 10.32 38, 42, 48 (Avg:45)
56 Carol Major Bradali Najmul Fi Samar 10 7:54:00 10.8, 9.4 10.13 39, 51, 48 (Avg:49)
5 Tayla Warren Warren Park O.B. One 11 7:55:00 10.8, 9.4 10.11 36, 36, 42 (Avg:39)
3 Louise Piddington Currowan Waratah 12 8:08:00 9.9, 9.6 9.84 43, 49, 50 (Avg:49)
38 John Osboldstone Pure Detenation 13 8:22:00 10.0, 9.0 9.56 32, 45, 52 (Avg:48)
37 Nicole Pearson Sandine Gem 13 8:22:00 10.0, 9.0 9.56 28, 40, 50 (Avg:45)
41 Maddy Collins Mosaic 15 8:34:00 9.9, 8.7 9.34 41, 45, 50 (Avg:47)
69 Alamdar Dastani M.A. Mashkell 15 8:34:00 9.9, 8.7 9.34 40, 41, 52 (Avg:46)
61 Kayte Barnard Sandine Malika Lame L1 0:00:00 9.7 - 36, 48 (Avg:48)
42 Bridie Lewis Orion Withdrawn L1 0:00:00 - - 46, 48, 46 (Avg:47)
53 Nicole Smith Skittles Withdrawn L1 0:00:00 - - 30, 43 (Avg:43)
40 Peter Bice Future Dream Dodger Not started P/R 0:00:00 - - 48
Lightweight
8 Courtney Chapman Littlebanks Woneta 1 5:19:00 15.7, 14.3 15.05 35, 42, 46 (Avg:44)
10 Indigo Noonan Littlebanks Crystal Wings 1 (BC) 5:19:00 15.7, 14.3 15.05 30, 40, 41 (Avg:40)
51 April Newman Tarnette 3 5:38:00 14.6, 13.7 14.20 35, 39, 45 (Avg:42)
46 Kali Curtis Blake's Heaven Carousel 4 5:52:00 14.3, 12.9 13.64 31, 40, 48 (Avg:44)
48 Adeline Gibson Blake's Heaven Angelico 4 5:52:00 14.3, 12.9 13.64 35, 41, 45 (Avg:43)
27 Sue Todd Shalacey Bear 6 7:54:00 10.8, 9.4 10.13 37, 38, 50 (Avg:44)
1 Allix Jones Larntainey Gold 'N' Treasure 7 8:08:00 10.4, 9.3 9.84 45, 44, 50 (Avg:47)
45 Brooke Warner Razorback Respect 8 8:26:00 9.6, 9.3 9.49 38, 37, 40 (Avg:38)
34 Kim Noble Aitchisonview Maverick 9 8:34:00 9.9, 8.7 9.34 44, 45, 48 (Avg:46)
62 Morgan Carolan Henley Farm Yedir Withdrawn L1 0:00:00 - - 39, 48 (Avg:48)
60 Mary Hollingsworth Aloha Play Boy Withdrawn L1 0:00:00 - - 50, 48 (Avg:48)
55 Faith Robinson Arabesque Winning Streak Withdrawn L1 0:00:00 - - 36, 48 (Avg:48)
Junior
39 Victoria Bice Georgie Girl 1 (BC) 6:36:00 12.3, 11.9 12.12 34, 43, 44 (Avg:43)
36 Daniel Noble M.A. Hasaab 2 8:34:00 9.9, 8.7 9.34 38, 46, 52 (Avg:49)
35 Alison Noble Argon 2 8:34:00 9.9, 8.7 9.34 36, 45, 57 (Avg:51)
22 Harrison Berg Omani Ishana Withdrawn L1 0:00:00 - - 36, 42 (Avg:42)
30 Georgia Curry Macquarie Park Banjo Lame P/R 0:00:00 - - 34, 46 (Avg:46)